Time;durP1;ratioP1;P1;durP2;ratioP2;P2;SDS_P1;SDS_P2;PMS_P1;PMS_P2;Temp;Humidity;BMP_temperature;BMP_pressure;BME280_temperature;BME280_humidity;BME280_pressure;Samples;Min_cycle;Max_cycle;Signal;HPM_P1;HPM_P2
2023/01/24 00:04:52;;;;;;;14.63;7.55;;;;;;;;;;10420921;28;20214;-80
2023/01/24 00:09:53;;;;;;;15.07;7.40;;;;;;;;;;10439677;28;20210;-78
2023/01/24 00:14:54;;;;;;;14.43;6.72;;;;;;;;;;10423354;28;20210;-79
2023/01/24 00:19:55;;;;;;;11.90;5.90;;;;;;;;;;10437477;28;20301;-80
2023/01/24 00:24:56;;;;;;;15.15;6.68;;;;;;;;;;10435549;28;20207;-79
2023/01/24 00:29:58;;;;;;;10.60;6.63;;;;;;;;;;10438199;28;20210;-79
2023/01/24 00:34:59;;;;;;;13.10;6.97;;;;;;;;;;10435920;28;20219;-79
2023/01/24 00:40:00;;;;;;;11.63;7.10;;;;;;;;;;10421416;28;20215;-78
2023/01/24 00:45:01;;;;;;;19.65;7.47;;;;;;;;;;10420830;28;20659;-81
2023/01/24 00:50:03;;;;;;;11.55;6.50;;;;;;;;;;10434669;28;20258;-81
2023/01/24 00:55:04;;;;;;;11.45;6.65;;;;;;;;;;10423278;28;20723;-78
2023/01/24 01:00:05;;;;;;;10.80;7.15;;;;;;;;;;10442120;28;20340;-80
2023/01/24 01:05:07;;;;;;;15.02;7.47;;;;;;;;;;10428955;28;20195;-79
2023/01/24 01:10:09;;;;;;;16.65;6.68;;;;;;;;;;10424551;28;20267;-80
2023/01/24 01:15:10;;;;;;;13.23;7.93;;;;;;;;;;10437705;28;20252;-78
2023/01/24 01:20:11;;;;;;;13.10;6.72;;;;;;;;;;10416408;28;20316;-80
2023/01/24 01:25:12;;;;;;;15.70;6.55;;;;;;;;;;10425131;28;20231;-79
2023/01/24 01:30:14;;;;;;;14.75;6.72;;;;;;;;;;10428558;28;20202;-79
2023/01/24 01:35:15;;;;;;;14.30;7.63;;;;;;;;;;10436368;28;20579;-79
2023/01/24 01:40:18;;;;;;;15.55;6.50;;;;;;;;;;10420521;28;20384;-79
2023/01/24 01:45:28;;;;;;;13.98;6.85;;;;;;;;;;10403773;28;20217;-80
2023/01/24 01:50:33;;;;;;;15.18;7.05;;;;;;;;;;10434327;28;20312;-79
2023/01/24 01:55:36;;;;;;;14.57;7.32;;;;;;;;;;10448674;28;20791;-80
2023/01/24 02:00:37;;;;;;;14.57;7.28;;;;;;;;;;10420729;28;20289;-80
2023/01/24 02:05:38;;;;;;;15.13;7.05;;;;;;;;;;10418076;28;20230;-78
2023/01/24 02:16:03;;;;;;;14.38;7.03;;;;;;;;;;10424247;28;20241;-78
2023/01/24 02:21:07;;;;;;;19.42;7.60;;;;;;;;;;10428984;28;20218;-79
2023/01/24 02:26:22;;;;;;;17.90;6.55;;;;;;;;;;10432154;28;20246;-80
2023/01/24 02:31:24;;;;;;;13.27;7.00;;;;;;;;;;10414367;28;20246;-81
2023/01/24 02:36:25;;;;;;;14.05;6.28;;;;;;;;;;10420161;28;20218;-80
2023/01/24 02:41:28;;;;;;;14.98;6.90;;;;;;;;;;10445463;28;20214;-79
2023/01/24 02:46:30;;;;;;;12.35;6.63;;;;;;;;;;10437373;28;20207;-77
2023/01/24 03:02:11;;;;;;;15.13;6.90;;;;;;;;;;10420193;28;20256;-79
2023/01/24 03:07:12;;;;;;;13.55;7.63;;;;;;;;;;10412843;28;20313;-80
2023/01/24 03:44:20;;;;;;;12.90;6.10;;;;;;;;;;10425080;28;20230;-80
2023/01/24 03:54:41;;;;;;;11.00;6.10;;;;;;;;;;10408102;28;20348;-79
2023/01/24 03:59:42;;;;;;;11.43;6.05;;;;;;;;;;10409860;28;20324;-79
2023/01/24 04:10:05;;;;;;;11.52;6.43;;;;;;;;;;10416868;28;20215;-80
2023/01/24 04:15:23;;;;;;;14.60;6.30;;;;;;;;;;10433763;28;21054;-79
2023/01/24 04:20:32;;;;;;;14.48;6.47;;;;;;;;;;10400363;28;20275;-80
2023/01/24 04:25:33;;;;;;;10.70;5.95;;;;;;;;;;10441738;28;20260;-80
2023/01/24 04:30:34;;;;;;;10.88;5.95;;;;;;;;;;10410794;28;20819;-80
2023/01/24 04:35:41;;;;;;;11.20;5.78;;;;;;;;;;10430154;28;20242;-80
2023/01/24 04:40:42;;;;;;;11.55;6.43;;;;;;;;;;10428024;28;20233;-82
2023/01/24 04:45:43;;;;;;;12.10;6.38;;;;;;;;;;10392073;28;20298;-80
2023/01/24 04:50:48;;;;;;;13.15;6.55;;;;;;;;;;10391669;28;20219;-80
2023/01/24 04:55:52;;;;;;;11.25;6.22;;;;;;;;;;10430884;28;20215;-79
2023/01/24 05:00:53;;;;;;;12.05;6.13;;;;;;;;;;10421914;28;20439;-80
2023/01/24 05:05:55;;;;;;;14.35;6.28;;;;;;;;;;10418621;28;20305;-80
2023/01/24 05:11:00;;;;;;;7.93;5.75;;;;;;;;;;10422033;28;20222;-80
2023/01/24 05:16:03;;;;;;;12.00;5.88;;;;;;;;;;10439603;28;20222;-82
2023/01/24 05:21:10;;;;;;;7.88;4.90;;;;;;;;;;10399938;28;20219;-81
2023/01/24 05:26:12;;;;;;;8.50;5.43;;;;;;;;;;10403178;28;20683;-81
2023/01/24 05:31:15;;;;;;;10.10;5.35;;;;;;;;;;10436234;28;20342;-80
2023/01/24 05:36:18;;;;;;;6.40;4.90;;;;;;;;;;10390653;28;20643;-81
2023/01/24 05:41:21;;;;;;;8.73;5.35;;;;;;;;;;10393502;28;20769;-80
2023/01/24 05:46:24;;;;;;;7.68;4.72;;;;;;;;;;10410087;28;20221;-78
2023/01/24 05:51:55;;;;;;;10.63;5.50;;;;;;;;;;10418179;28;20256;-80
2023/01/24 05:57:11;;;;;;;7.78;4.93;;;;;;;;;;10414542;28;20333;-80
2023/01/24 06:02:33;;;;;;;7.00;4.65;;;;;;;;;;10412225;28;22540;-80
2023/01/24 06:07:34;;;;;;;6.68;4.60;;;;;;;;;;10417300;28;20203;-80
2023/01/24 06:12:35;;;;;;;7.15;4.80;;;;;;;;;;10401677;28;20207;-80
2023/01/24 06:17:37;;;;;;;6.82;4.82;;;;;;;;;;10434088;28;20242;-81
2023/01/24 06:22:54;;;;;;;6.05;4.68;;;;;;;;;;10407268;28;20246;-82
2023/01/24 06:27:57;;;;;;;6.60;4.22;;;;;;;;;;10412046;28;20218;-80
2023/01/24 06:33:28;;;;;;;9.55;5.10;;;;;;;;;;10423287;28;20211;-80
2023/01/24 06:38:29;;;;;;;5.13;3.97;;;;;;;;;;10402902;28;20218;-80
2023/01/24 06:43:30;;;;;;;7.88;4.63;;;;;;;;;;10417346;28;20214;-81
2023/01/24 06:48:31;;;;;;;5.07;4.18;;;;;;;;;;10428547;28;20310;-80
2023/01/24 06:53:33;;;;;;;6.63;4.25;;;;;;;;;;10421453;28;20214;-81
2023/01/24 06:58:34;;;;;;;4.68;3.60;;;;;;;;;;10423162;28;20222;-81
2023/01/24 07:03:36;;;;;;;6.53;4.20;;;;;;;;;;10427654;28;20225;-81
2023/01/24 07:08:37;;;;;;;4.93;3.63;;;;;;;;;;10399811;28;20296;-80
2023/01/24 07:13:38;;;;;;;6.32;4.10;;;;;;;;;;10425649;28;20211;-80
2023/01/24 07:18:39;;;;;;;5.47;3.22;;;;;;;;;;10425219;28;20685;-80
2023/01/24 07:23:44;;;;;;;7.78;4.32;;;;;;;;;;10412815;28;20253;-80
2023/01/24 07:28:45;;;;;;;5.95;4.18;;;;;;;;;;10402761;28;20795;-81
2023/01/24 07:33:46;;;;;;;7.55;4.57;;;;;;;;;;10421670;28;20309;-81
2023/01/24 07:38:47;;;;;;;6.50;4.18;;;;;;;;;;10422547;28;20230;-83
2023/01/24 07:43:48;;;;;;;7.63;4.68;;;;;;;;;;10403088;28;20203;-82
2023/01/24 07:48:49;;;;;;;7.22;4.38;;;;;;;;;;10424339;28;20740;-81
2023/01/24 07:53:50;;;;;;;9.02;4.88;;;;;;;;;;10419922;28;20253;-82
2023/01/24 07:58:51;;;;;;;5.93;4.05;;;;;;;;;;10422299;28;20230;-82
2023/01/24 08:03:56;;;;;;;8.68;5.07;;;;;;;;;;10424619;28;20225;-81
2023/01/24 08:08:57;;;;;;;10.52;6.30;;;;;;;;;;10423590;28;20383;-80
2023/01/24 08:13:59;;;;;;;8.90;5.50;;;;;;;;;;10420248;28;20737;-80
2023/01/24 08:19:00;;;;;;;7.40;5.90;;;;;;;;;;10405354;28;21109;-81
2023/01/24 08:24:01;;;;;;;9.65;5.95;;;;;;;;;;10407130;28;20300;-80
2023/01/24 08:29:02;;;;;;;8.77;5.40;;;;;;;;;;10435957;28;20272;-80
2023/01/24 08:34:04;;;;;;;8.73;5.28;;;;;;;;;;10416897;28;20214;-81
2023/01/24 08:39:05;;;;;;;7.45;4.65;;;;;;;;;;10437771;28;20222;-80
2023/01/24 08:44:07;;;;;;;8.52;5.28;;;;;;;;;;10436445;28;20207;-80
2023/01/24 08:49:09;;;;;;;7.10;5.38;;;;;;;;;;10439638;28;20229;-82
2023/01/24 08:54:11;;;;;;;9.43;5.32;;;;;;;;;;10431899;28;20214;-80
2023/01/24 08:59:12;;;;;;;9.27;5.13;;;;;;;;;;10437696;28;20226;-80
2023/01/24 09:04:13;;;;;;;7.72;4.78;;;;;;;;;;10441539;28;20207;-80
2023/01/24 09:09:15;;;;;;;12.43;6.05;;;;;;;;;;10439301;28;20697;-80
2023/01/24 09:14:16;;;;;;;11.50;5.45;;;;;;;;;;10438038;28;20215;-80
2023/01/24 09:19:17;;;;;;;8.70;5.45;;;;;;;;;;10437042;28;20230;-81
2023/01/24 09:24:19;;;;;;;11.52;5.82;;;;;;;;;;10418793;28;20246;-79
2023/01/24 09:29:20;;;;;;;11.73;5.80;;;;;;;;;;10412235;28;20682;-80
2023/01/24 09:34:21;;;;;;;9.02;5.88;;;;;;;;;;10427756;28;20289;-82
2023/01/24 09:39:22;;;;;;;9.23;5.57;;;;;;;;;;10396443;28;20230;-81
2023/01/24 09:44:29;;;;;;;14.90;6.18;;;;;;;;;;10451815;28;20227;-82
2023/01/24 09:49:43;;;;;;;9.25;5.95;;;;;;;;;;10424762;28;20286;-79
2023/01/24 09:54:47;;;;;;;10.82;5.70;;;;;;;;;;10406204;28;20219;-80
2023/01/24 09:59:52;;;;;;;12.35;6.45;;;;;;;;;;10416431;28;20215;-80
2023/01/24 10:04:54;;;;;;;10.75;6.32;;;;;;;;;;10431026;28;20689;-81
2023/01/24 10:10:01;;;;;;;10.13;6.10;;;;;;;;;;10429288;28;20226;-80
2023/01/24 10:15:20;;;;;;;11.20;6.25;;;;;;;;;;10409188;28;20787;-80
2023/01/24 10:20:34;;;;;;;12.10;5.40;;;;;;;;;;10427931;28;20198;-79
2023/01/24 10:25:41;;;;;;;12.23;6.78;;;;;;;;;;10411483;28;20218;-80
2023/01/24 10:30:46;;;;;;;9.27;6.25;;;;;;;;;;10434088;28;20229;-80
2023/01/24 10:36:01;;;;;;;11.55;6.28;;;;;;;;;;10387060;28;20227;-80
2023/01/24 10:41:17;;;;;;;13.77;6.63;;;;;;;;;;10419308;28;20225;-79
2023/01/24 10:46:28;;;;;;;13.25;6.90;;;;;;;;;;10430729;28;20206;-80
2023/01/24 10:51:29;;;;;;;10.52;6.60;;;;;;;;;;10425459;28;20318;-79
2023/01/24 10:56:39;;;;;;;13.13;6.80;;;;;;;;;;10427102;28;20218;-80
2023/01/24 11:01:44;;;;;;;18.25;6.95;;;;;;;;;;10427046;28;20207;-80
2023/01/24 11:06:47;;;;;;;15.52;7.35;;;;;;;;;;10427341;28;20215;-80
2023/01/24 11:11:50;;;;;;;11.35;7.20;;;;;;;;;;10384484;28;20214;-80
2023/01/24 11:16:53;;;;;;;10.10;6.15;;;;;;;;;;10423528;28;20219;-80
2023/01/24 11:21:58;;;;;;;10.55;6.93;;;;;;;;;;10403207;28;20214;-80
2023/01/24 11:27:14;;;;;;;10.00;7.15;;;;;;;;;;10428987;28;20210;-81
2023/01/24 11:32:15;;;;;;;14.25;7.78;;;;;;;;;;10427933;28;20205;-81
2023/01/24 11:37:25;;;;;;;15.07;6.65;;;;;;;;;;10422415;28;20218;-81
2023/01/24 11:42:37;;;;;;;11.00;6.88;;;;;;;;;;10424516;28;20736;-80
2023/01/24 11:47:44;;;;;;;12.63;6.82;;;;;;;;;;10432452;28;20288;-80
2023/01/24 11:52:53;;;;;;;11.95;6.70;;;;;;;;;;10402080;28;20723;-80
2023/01/24 11:58:12;;;;;;;11.10;6.40;;;;;;;;;;10394219;28;20294;-80
2023/01/24 12:03:39;;;;;;;20.58;6.88;;;;;;;;;;10433947;28;20210;-80
2023/01/24 12:08:40;;;;;;;14.40;6.85;;;;;;;;;;10419809;28;20214;-82
2023/01/24 12:13:47;;;;;;;13.52;7.03;;;;;;;;;;10438479;28;20877;-80
2023/01/24 12:19:07;;;;;;;9.77;5.90;;;;;;;;;;10420664;28;20643;-81
2023/01/24 12:24:09;;;;;;;11.18;6.32;;;;;;;;;;10430413;28;20206;-81
2023/01/24 12:29:16;;;;;;;17.38;6.20;;;;;;;;;;10432030;28;20203;-81
2023/01/24 12:34:31;;;;;;;8.38;5.43;;;;;;;;;;10433844;28;20214;-82
2023/01/24 12:39:38;;;;;;;9.80;5.45;;;;;;;;;;10393778;28;20301;-82
2023/01/24 12:44:42;;;;;;;10.25;5.90;;;;;;;;;;10428088;28;20325;-81
2023/01/24 12:50:01;;;;;;;13.60;5.90;;;;;;;;;;10413803;28;20221;-81
2023/01/24 12:55:03;;;;;;;8.80;5.57;;;;;;;;;;10402107;28;20222;-81
2023/01/24 13:00:04;;;;;;;9.25;5.90;;;;;;;;;;10432353;28;20201;-81
2023/01/24 13:05:24;;;;;;;9.15;5.20;;;;;;;;;;10433134;28;20181;-82
2023/01/24 13:10:31;;;;;;;7.78;4.63;;;;;;;;;;10415317;28;20214;-81
2023/01/24 13:15:40;;;;;;;8.50;4.82;;;;;;;;;;10441475;28;20635;-81
2023/01/24 13:20:55;;;;;;;9.18;4.95;;;;;;;;;;10434149;28;20215;-81
2023/01/24 13:26:09;;;;;;;8.07;4.93;;;;;;;;;;10447007;28;20242;-80
2023/01/24 13:31:13;;;;;;;9.02;4.55;;;;;;;;;;10435776;28;20218;-80
2023/01/24 13:36:22;;;;;;;10.38;5.60;;;;;;;;;;10429815;28;20634;-81
2023/01/24 13:41:26;;;;;;;6.93;5.45;;;;;;;;;;10397550;28;20985;-81
2023/01/24 13:46:47;;;;;;;11.45;5.03;;;;;;;;;;10432437;28;20214;-81
2023/01/24 13:51:49;;;;;;;6.97;5.00;;;;;;;;;;10409810;28;20313;-82
2023/01/24 13:57:09;;;;;;;6.57;4.65;;;;;;;;;;10431742;28;20399;-81
2023/01/24 14:02:29;;;;;;;7.40;4.30;;;;;;;;;;10433264;28;20293;-78
2023/01/24 14:07:38;;;;;;;5.45;4.85;;;;;;;;;;10418974;28;20215;-81
2023/01/24 14:12:40;;;;;;;6.35;4.40;;;;;;;;;;10428591;28;20238;-81
2023/01/24 14:17:43;;;;;;;5.63;4.35;;;;;;;;;;10437661;28;20214;-81
2023/01/24 14:22:45;;;;;;;7.88;4.95;;;;;;;;;;10432915;28;20779;-81
2023/01/24 14:27:53;;;;;;;8.20;4.40;;;;;;;;;;10434768;28;20739;-81
2023/01/24 14:32:58;;;;;;;4.68;4.03;;;;;;;;;;10418340;28;20207;-81
2023/01/24 14:38:15;;;;;;;6.35;4.80;;;;;;;;;;10429821;28;20215;-79
2023/01/24 14:43:17;;;;;;;7.43;5.70;;;;;;;;;;10410295;28;20299;-82
2023/01/24 14:48:25;;;;;;;6.35;4.70;;;;;;;;;;10445094;28;20272;-81
2023/01/24 14:53:30;;;;;;;9.27;4.68;;;;;;;;;;10422547;28;20222;-80
2023/01/24 14:58:31;;;;;;;5.68;4.15;;;;;;;;;;10426268;28;20269;-80
2023/01/24 15:03:34;;;;;;;6.10;4.13;;;;;;;;;;10420282;28;20218;-82
2023/01/24 15:08:36;;;;;;;8.32;4.75;;;;;;;;;;10442111;28;20222;-83
2023/01/24 15:13:43;;;;;;;7.45;4.68;;;;;;;;;;10443966;28;20644;-84
2023/01/24 15:18:45;;;;;;;8.73;4.78;;;;;;;;;;10421837;28;20276;-82
2023/01/24 15:23:51;;;;;;;6.45;4.90;;;;;;;;;;10428547;28;20210;-81
2023/01/24 15:28:52;;;;;;;7.72;4.75;;;;;;;;;;10453668;28;20207;-81
2023/01/24 15:33:55;;;;;;;9.20;4.55;;;;;;;;;;10440087;28;20209;-80
2023/01/24 15:38:57;;;;;;;8.50;4.75;;;;;;;;;;10433426;28;20448;-81
2023/01/24 15:44:01;;;;;;;6.07;4.53;;;;;;;;;;10450101;28;20241;-80
2023/01/24 15:49:17;;;;;;;8.60;4.45;;;;;;;;;;10420734;28;20230;-80
2023/01/24 15:54:18;;;;;;;10.77;4.40;;;;;;;;;;10417977;28;20232;-81
2023/01/24 15:59:21;;;;;;;6.13;4.25;;;;;;;;;;10425544;28;20214;-80
2023/01/24 16:04:23;;;;;;;7.22;4.32;;;;;;;;;;10386499;28;20268;-81
2023/01/24 16:09:24;;;;;;;9.25;5.05;;;;;;;;;;10394003;28;20206;-81
2023/01/24 16:14:26;;;;;;;8.15;4.32;;;;;;;;;;10426532;28;20215;-81
2023/01/24 16:19:27;;;;;;;4.47;3.70;;;;;;;;;;10421333;28;20215;-79
2023/01/24 16:24:28;;;;;;;8.70;3.97;;;;;;;;;;10415453;28;20207;-80
2023/01/24 16:29:30;;;;;;;9.55;5.22;;;;;;;;;;10427112;28;20214;-81
2023/01/24 16:34:31;;;;;;;7.43;4.65;;;;;;;;;;10402764;28;20332;-80
2023/01/24 16:39:33;;;;;;;9.13;5.28;;;;;;;;;;10422665;28;20227;-81
2023/01/24 16:44:34;;;;;;;7.00;4.25;;;;;;;;;;10386307;28;20217;-81
2023/01/24 16:49:36;;;;;;;7.10;4.28;;;;;;;;;;10425789;28;20222;-80
2023/01/24 16:54:40;;;;;;;11.88;5.53;;;;;;;;;;10425943;28;20220;-80
2023/01/24 16:59:41;;;;;;;5.60;4.68;;;;;;;;;;10427214;28;20261;-79
2023/01/24 17:04:42;;;;;;;6.70;4.82;;;;;;;;;;10417884;28;20214;-79
2023/01/24 17:09:43;;;;;;;8.68;5.72;;;;;;;;;;10400387;28;20763;-80
2023/01/24 17:14:45;;;;;;;9.65;5.78;;;;;;;;;;10411399;28;20244;-80
2023/01/24 17:19:47;;;;;;;5.28;4.78;;;;;;;;;;10396957;28;20771;-79
2023/01/24 17:24:48;;;;;;;6.28;5.07;;;;;;;;;;10425489;28;20242;-80
2023/01/24 17:29:49;;;;;;;9.07;4.82;;;;;;;;;;10430339;28;20227;-80
2023/01/24 17:34:50;;;;;;;7.72;5.63;;;;;;;;;;10406439;28;20334;-80
2023/01/24 17:39:52;;;;;;;7.45;4.63;;;;;;;;;;10429944;28;20651;-81
2023/01/24 17:44:53;;;;;;;8.68;5.03;;;;;;;;;;10415518;28;20210;-79
2023/01/24 17:49:54;;;;;;;8.10;5.22;;;;;;;;;;10425219;28;20218;-78
2023/01/24 17:54:57;;;;;;;8.05;5.30;;;;;;;;;;10421611;28;20213;-78
2023/01/24 17:59:58;;;;;;;9.30;5.18;;;;;;;;;;10423031;28;20343;-79
2023/01/24 18:04:59;;;;;;;8.88;5.03;;;;;;;;;;10409735;28;20260;-80
2023/01/24 18:10:01;;;;;;;9.13;5.30;;;;;;;;;;10395710;28;20223;-81
2023/01/24 18:15:02;;;;;;;9.05;4.60;;;;;;;;;;10431296;28;20437;-80
2023/01/24 18:20:04;;;;;;;5.75;4.55;;;;;;;;;;10432712;28;20242;-82
2023/01/24 18:25:05;;;;;;;9.35;5.35;;;;;;;;;;10422024;28;20229;-81
2023/01/24 18:30:07;;;;;;;14.60;6.35;;;;;;;;;;10426228;28;20583;-81
2023/01/24 18:35:09;;;;;;;7.18;3.88;;;;;;;;;;10394242;28;20179;-80
2023/01/24 18:40:11;;;;;;;8.50;4.38;;;;;;;;;;10408553;28;20229;-81
2023/01/24 18:45:12;;;;;;;6.97;5.15;;;;;;;;;;10405627;28;20187;-80
2023/01/24 18:50:13;;;;;;;9.10;5.70;;;;;;;;;;10402793;28;20229;-79
2023/01/24 18:55:15;;;;;;;10.18;5.10;;;;;;;;;;10419154;28;20179;-80
2023/01/24 19:00:18;;;;;;;11.55;5.63;;;;;;;;;;10405993;28;20206;-80
2023/01/24 19:05:19;;;;;;;7.75;4.88;;;;;;;;;;10419281;28;20714;-79
2023/01/24 19:10:22;;;;;;;6.95;5.45;;;;;;;;;;10421941;28;20250;-80
2023/01/24 19:15:24;;;;;;;8.77;5.28;;;;;;;;;;10401230;28;20222;-80
2023/01/24 19:20:25;;;;;;;12.13;6.75;;;;;;;;;;10418679;28;21091;-80
2023/01/24 19:25:26;;;;;;;9.93;5.95;;;;;;;;;;10403902;28;20301;-82
2023/01/24 19:30:28;;;;;;;7.78;5.70;;;;;;;;;;10417614;28;20219;-80
2023/01/24 19:35:29;;;;;;;7.68;5.57;;;;;;;;;;10397127;28;20240;-81
2023/01/24 19:40:30;;;;;;;10.30;5.85;;;;;;;;;;10420278;28;20214;-81
2023/01/24 19:45:31;;;;;;;6.75;5.50;;;;;;;;;;10419239;28;20209;-80
2023/01/24 19:50:32;;;;;;;9.85;5.97;;;;;;;;;;10417384;28;20229;-81
2023/01/24 19:55:34;;;;;;;6.50;5.22;;;;;;;;;;10401743;28;20213;-81
2023/01/24 20:00:36;;;;;;;8.02;5.10;;;;;;;;;;10429708;28;20215;-81
2023/01/24 20:05:37;;;;;;;6.65;4.20;;;;;;;;;;10407737;28;20210;-80
2023/01/24 20:10:39;;;;;;;5.97;4.68;;;;;;;;;;10418509;28;20210;-78
2023/01/24 20:15:40;;;;;;;8.77;6.25;;;;;;;;;;10420493;28;21556;-81
2023/01/24 20:20:47;;;;;;;7.32;4.93;;;;;;;;;;10379281;28;20891;-81
2023/01/24 20:25:49;;;;;;;10.82;5.90;;;;;;;;;;10423507;28;20318;-82
2023/01/24 20:30:50;;;;;;;8.30;5.75;;;;;;;;;;10409040;28;20222;-81
2023/01/24 20:36:11;;;;;;;9.85;6.55;;;;;;;;;;10420596;28;20213;-81
2023/01/24 20:41:15;;;;;;;7.25;5.55;;;;;;;;;;10396773;28;20219;-81
2023/01/24 20:46:19;;;;;;;7.43;5.47;;;;;;;;;;10425966;28;20253;-81
2023/01/24 20:51:21;;;;;;;10.27;5.55;;;;;;;;;;10424108;28;20226;-76
2023/01/24 20:56:22;;;;;;;8.57;5.28;;;;;;;;;;10441968;28;20253;-80
2023/01/24 21:01:24;;;;;;;8.50;5.30;;;;;;;;;;10415535;28;20214;-80
2023/01/24 21:06:25;;;;;;;8.50;6.13;;;;;;;;;;10438442;28;20207;-79
2023/01/24 21:11:28;;;;;;;9.40;5.80;;;;;;;;;;10414721;28;20223;-81
2023/01/24 21:16:30;;;;;;;7.88;5.10;;;;;;;;;;10424632;28;20223;-80
2023/01/24 21:21:36;;;;;;;9.23;5.45;;;;;;;;;;10383558;28;21029;-81
2023/01/24 21:26:37;;;;;;;7.85;4.93;;;;;;;;;;10418718;28;20210;-80
2023/01/24 21:31:38;;;;;;;10.48;5.72;;;;;;;;;;10432847;28;20219;-79
2023/01/24 21:36:39;;;;;;;9.48;5.32;;;;;;;;;;10414300;28;20226;-80
2023/01/24 21:41:58;;;;;;;9.00;5.68;;;;;;;;;;10411917;28;20225;-80
2023/01/24 21:47:00;;;;;;;7.65;5.05;;;;;;;;;;10405686;28;20719;-80
2023/01/24 21:52:02;;;;;;;8.90;4.95;;;;;;;;;;10431292;28;20245;-80
2023/01/24 22:02:30;;;;;;;13.65;5.32;;;;;;;;;;10420715;28;20345;-81
2023/01/24 22:07:31;;;;;;;4.38;3.97;;;;;;;;;;10405121;28;20225;-81
2023/01/24 22:12:34;;;;;;;7.88;5.05;;;;;;;;;;10439814;28;20314;-81
2023/01/24 22:17:38;;;;;;;7.47;4.80;;;;;;;;;;10409010;28;20227;-81
2023/01/24 22:22:54;;;;;;;5.78;4.57;;;;;;;;;;10400984;28;20218;-80
2023/01/24 22:27:55;;;;;;;7.25;5.40;;;;;;;;;;10419500;28;20275;-80
2023/01/24 22:32:56;;;;;;;5.03;3.70;;;;;;;;;;10416698;28;20214;-80
2023/01/24 22:37:59;;;;;;;5.53;4.53;;;;;;;;;;10431346;28;20211;-80
2023/01/24 22:43:00;;;;;;;6.55;4.90;;;;;;;;;;10410179;28;20205;-80
2023/01/24 22:48:10;;;;;;;7.65;5.35;;;;;;;;;;10435173;28;20621;-81
2023/01/24 22:53:11;;;;;;;5.65;4.60;;;;;;;;;;10398799;28;20302;-80
2023/01/24 22:58:13;;;;;;;6.03;5.07;;;;;;;;;;10439176;28;20211;-81
2023/01/24 23:03:14;;;;;;;6.90;5.18;;;;;;;;;;10430514;28;20199;-80
2023/01/24 23:08:16;;;;;;;8.98;5.85;;;;;;;;;;10417797;28;20214;-80
2023/01/24 23:24:00;;;;;;;9.48;5.40;;;;;;;;;;10428959;28;20620;-80
2023/01/24 23:29:07;;;;;;;9.35;6.10;;;;;;;;;;10432979;28;20307;-80
2023/01/24 23:34:25;;;;;;;8.70;5.57;;;;;;;;;;10433458;28;20341;-80
2023/01/24 23:39:26;;;;;;;11.48;5.78;;;;;;;;;;10425868;28;20240;-79
2023/01/24 23:44:27;;;;;;;10.85;6.95;;;;;;;;;;10435650;28;20217;-80
2023/01/24 23:49:28;;;;;;;8.73;5.65;;;;;;;;;;10429304;28;20951;-80
2023/01/24 23:54:30;;;;;;;10.00;5.45;;;;;;;;;;10400737;28;20226;-80
2023/01/24 23:59:32;;;;;;;10.98;5.22;;;;;;;;;;10417203;28;20633;-79
